sensor_id;sensor_type;location;lat;lon;timestamp;temperature;humidity
21169;DHT22;10742;51.816;8.662;2024-01-10T00:02:57;-1.80;78.40
21169;DHT22;10742;51.816;8.662;2024-01-10T00:06:18;-1.90;78.40
21169;DHT22;10742;51.816;8.662;2024-01-10T00:09:40;-1.90;78.40
21169;DHT22;10742;51.816;8.662;2024-01-10T00:13:01;-1.90;78.50
21169;DHT22;10742;51.816;8.662;2024-01-10T00:16:22;-1.90;78.50
21169;DHT22;10742;51.816;8.662;2024-01-10T00:19:44;-1.90;78.50
21169;DHT22;10742;51.816;8.662;2024-01-10T00:23:05;-1.80;78.50
21169;DHT22;10742;51.816;8.662;2024-01-10T00:26:27;-1.80;78.50
21169;DHT22;10742;51.816;8.662;2024-01-10T00:29:49;-1.80;78.40
21169;DHT22;10742;51.816;8.662;2024-01-10T00:33:12;-1.80;78.40
21169;DHT22;10742;51.816;8.662;2024-01-10T00:36:34;-1.70;78.50
21169;DHT22;10742;51.816;8.662;2024-01-10T00:39:55;-1.70;78.50
21169;DHT22;10742;51.816;8.662;2024-01-10T00:43:16;-1.70;78.50
21169;DHT22;10742;51.816;8.662;2024-01-10T00:46:38;-1.70;78.40
21169;DHT22;10742;51.816;8.662;2024-01-10T00:49:59;-1.70;78.40
21169;DHT22;10742;51.816;8.662;2024-01-10T00:53:20;-1.80;78.40
21169;DHT22;10742;51.816;8.662;2024-01-10T00:56:42;-1.80;78.40
21169;DHT22;10742;51.816;8.662;2024-01-10T01:00:08;-1.80;78.40
21169;DHT22;10742;51.816;8.662;2024-01-10T01:03:30;-1.80;78.50
21169;DHT22;10742;51.816;8.662;2024-01-10T01:06:51;-1.80;78.60
21169;DHT22;10742;51.816;8.662;2024-01-10T01:10:12;-1.80;78.60
21169;DHT22;10742;51.816;8.662;2024-01-10T01:13:33;-1.80;78.70
21169;DHT22;10742;51.816;8.662;2024-01-10T01:16:54;-1.80;78.70
21169;DHT22;10742;51.816;8.662;2024-01-10T01:20:16;-1.80;78.70
21169;DHT22;10742;51.816;8.662;2024-01-10T01:23:37;-1.80;78.80
21169;DHT22;10742;51.816;8.662;2024-01-10T01:27:02;-1.80;78.80
21169;DHT22;10742;51.816;8.662;2024-01-10T01:30:23;-1.80;78.80
21169;DHT22;10742;51.816;8.662;2024-01-10T01:33:45;-1.90;78.70
21169;DHT22;10742;51.816;8.662;2024-01-10T01:37:07;-1.90;78.80
21169;DHT22;10742;51.816;8.662;2024-01-10T01:40:29;-1.90;78.80
21169;DHT22;10742;51.816;8.662;2024-01-10T01:43:50;-2.00;78.80
21169;DHT22;10742;51.816;8.662;2024-01-10T01:47:11;-2.00;79.00
21169;DHT22;10742;51.816;8.662;2024-01-10T01:50:33;-2.00;79.00
21169;DHT22;10742;51.816;8.662;2024-01-10T01:53:55;-2.00;79.00
21169;DHT22;10742;51.816;8.662;2024-01-10T01:57:16;-2.10;79.00
21169;DHT22;10742;51.816;8.662;2024-01-10T02:00:38;-2.10;79.10
21169;DHT22;10742;51.816;8.662;2024-01-10T02:04:03;-2.10;79.10
21169;DHT22;10742;51.816;8.662;2024-01-10T02:07:24;-2.10;79.30
21169;DHT22;10742;51.816;8.662;2024-01-10T02:10:45;-2.20;79.20
21169;DHT22;10742;51.816;8.662;2024-01-10T02:14:07;-2.30;79.30
21169;DHT22;10742;51.816;8.662;2024-01-10T02:17:28;-2.30;79.40
21169;DHT22;10742;51.816;8.662;2024-01-10T02:20:49;-2.30;79.40
21169;DHT22;10742;51.816;8.662;2024-01-10T02:24:11;-2.40;79.50
21169;DHT22;10742;51.816;8.662;2024-01-10T02:27:34;-2.40;79.50
21169;DHT22;10742;51.816;8.662;2024-01-10T02:30:57;-2.40;79.70
21169;DHT22;10742;51.816;8.662;2024-01-10T02:34:18;-2.40;79.70
21169;DHT22;10742;51.816;8.662;2024-01-10T02:37:40;-2.50;79.80
21169;DHT22;10742;51.816;8.662;2024-01-10T02:41:02;-2.50;80.00
21169;DHT22;10742;51.816;8.662;2024-01-10T02:44:24;-2.50;80.10
21169;DHT22;10742;51.816;8.662;2024-01-10T02:47:45;-2.50;80.20
21169;DHT22;10742;51.816;8.662;2024-01-10T02:51:07;-2.50;80.30
21169;DHT22;10742;51.816;8.662;2024-01-10T02:54:28;-2.50;80.40
21169;DHT22;10742;51.816;8.662;2024-01-10T02:57:49;-2.60;80.30
21169;DHT22;10742;51.816;8.662;2024-01-10T03:01:10;-2.60;80.50
21169;DHT22;10742;51.816;8.662;2024-01-10T03:04:32;-2.60;80.60
21169;DHT22;10742;51.816;8.662;2024-01-10T03:07:53;-2.70;80.60
21169;DHT22;10742;51.816;8.662;2024-01-10T03:11:14;-2.70;80.50
21169;DHT22;10742;51.816;8.662;2024-01-10T03:14:36;-2.70;80.50
21169;DHT22;10742;51.816;8.662;2024-01-10T03:17:57;-2.80;80.80
21169;DHT22;10742;51.816;8.662;2024-01-10T03:21:18;-2.90;80.90
21169;DHT22;10742;51.816;8.662;2024-01-10T03:24:45;-2.90;81.10
21169;DHT22;10742;51.816;8.662;2024-01-10T03:28:07;-3.00;81.30
21169;DHT22;10742;51.816;8.662;2024-01-10T03:31:28;-3.00;81.70
21169;DHT22;10742;51.816;8.662;2024-01-10T03:34:51;-3.00;81.70
21169;DHT22;10742;51.816;8.662;2024-01-10T03:38:13;-3.00;81.80
21169;DHT22;10742;51.816;8.662;2024-01-10T03:41:37;-3.00;81.80
21169;DHT22;10742;51.816;8.662;2024-01-10T03:44:59;-3.00;81.50
21169;DHT22;10742;51.816;8.662;2024-01-10T03:48:21;-3.10;81.40
21169;DHT22;10742;51.816;8.662;2024-01-10T03:51:42;-3.10;81.40
21169;DHT22;10742;51.816;8.662;2024-01-10T03:55:03;-3.10;81.10
21169;DHT22;10742;51.816;8.662;2024-01-10T03:58:25;-3.20;81.10
21169;DHT22;10742;51.816;8.662;2024-01-10T04:01:47;-3.30;81.20
21169;DHT22;10742;51.816;8.662;2024-01-10T04:05:09;-3.40;82.30
21169;DHT22;10742;51.816;8.662;2024-01-10T04:08:33;-3.50;81.80
21169;DHT22;10742;51.816;8.662;2024-01-10T04:11:54;-3.50;82.00
21169;DHT22;10742;51.816;8.662;2024-01-10T04:15:16;-3.50;82.10
21169;DHT22;10742;51.816;8.662;2024-01-10T04:18:39;-3.50;82.40
21169;DHT22;10742;51.816;8.662;2024-01-10T04:22:00;-3.50;82.10
21169;DHT22;10742;51.816;8.662;2024-01-10T04:25:22;-3.50;82.00
21169;DHT22;10742;51.816;8.662;2024-01-10T04:28:43;-3.50;82.00
21169;DHT22;10742;51.816;8.662;2024-01-10T04:32:05;-3.50;82.80
21169;DHT22;10742;51.816;8.662;2024-01-10T04:35:26;-3.50;82.20
21169;DHT22;10742;51.816;8.662;2024-01-10T04:38:48;-3.60;82.30
21169;DHT22;10742;51.816;8.662;2024-01-10T04:42:12;-3.60;82.40
21169;DHT22;10742;51.816;8.662;2024-01-10T04:45:34;-3.60;82.60
21169;DHT22;10742;51.816;8.662;2024-01-10T04:48:55;-3.50;82.60
21169;DHT22;10742;51.816;8.662;2024-01-10T04:52:16;-3.50;82.70
21169;DHT22;10742;51.816;8.662;2024-01-10T04:55:38;-3.50;82.70
21169;DHT22;10742;51.816;8.662;2024-01-10T04:59:00;-3.50;82.70
21169;DHT22;10742;51.816;8.662;2024-01-10T05:02:21;-3.50;82.60
21169;DHT22;10742;51.816;8.662;2024-01-10T05:05:43;-3.50;82.60
21169;DHT22;10742;51.816;8.662;2024-01-10T05:09:04;-3.50;82.60
21169;DHT22;10742;51.816;8.662;2024-01-10T05:12:25;-3.50;82.70
21169;DHT22;10742;51.816;8.662;2024-01-10T05:15:47;-3.50;82.80
21169;DHT22;10742;51.816;8.662;2024-01-10T05:19:08;-3.50;82.90
21169;DHT22;10742;51.816;8.662;2024-01-10T05:22:30;-3.50;83.00
21169;DHT22;10742;51.816;8.662;2024-01-10T05:25:52;-3.50;83.00
21169;DHT22;10742;51.816;8.662;2024-01-10T05:29:13;-3.50;83.10
21169;DHT22;10742;51.816;8.662;2024-01-10T05:32:34;-3.50;82.90
21169;DHT22;10742;51.816;8.662;2024-01-10T05:35:56;-3.50;82.90
21169;DHT22;10742;51.816;8.662;2024-01-10T05:39:17;-3.60;83.00
21169;DHT22;10742;51.816;8.662;2024-01-10T05:42:41;-3.50;83.20
21169;DHT22;10742;51.816;8.662;2024-01-10T05:46:02;-3.60;83.20
21169;DHT22;10742;51.816;8.662;2024-01-10T05:49:26;-3.70;83.50
21169;DHT22;10742;51.816;8.662;2024-01-10T05:52:48;-3.60;84.10
21169;DHT22;10742;51.816;8.662;2024-01-10T05:56:10;-3.60;83.90
21169;DHT22;10742;51.816;8.662;2024-01-10T05:59:31;-3.50;83.90
21169;DHT22;10742;51.816;8.662;2024-01-10T06:02:52;-3.50;83.70
21169;DHT22;10742;51.816;8.662;2024-01-10T06:06:14;-3.60;84.20
21169;DHT22;10742;51.816;8.662;2024-01-10T06:09:35;-3.50;86.20
21169;DHT22;10742;51.816;8.662;2024-01-10T06:12:57;-3.40;85.60
21169;DHT22;10742;51.816;8.662;2024-01-10T06:16:18;-3.40;85.10
21169;DHT22;10742;51.816;8.662;2024-01-10T06:19:39;-3.30;84.90
21169;DHT22;10742;51.816;8.662;2024-01-10T06:23:01;-3.30;84.70
21169;DHT22;10742;51.816;8.662;2024-01-10T06:26:22;-3.30;84.40
21169;DHT22;10742;51.816;8.662;2024-01-10T06:29:44;-3.30;84.30
21169;DHT22;10742;51.816;8.662;2024-01-10T06:33:05;-3.30;84.30
21169;DHT22;10742;51.816;8.662;2024-01-10T06:36:27;-3.30;84.20
21169;DHT22;10742;51.816;8.662;2024-01-10T06:39:49;-3.30;84.10
21169;DHT22;10742;51.816;8.662;2024-01-10T06:43:10;-3.30;84.00
21169;DHT22;10742;51.816;8.662;2024-01-10T06:46:32;-3.40;84.00
21169;DHT22;10742;51.816;8.662;2024-01-10T06:49:54;-3.40;84.10
21169;DHT22;10742;51.816;8.662;2024-01-10T06:53:16;-3.40;84.10
21169;DHT22;10742;51.816;8.662;2024-01-10T06:56:37;-3.40;84.10
21169;DHT22;10742;51.816;8.662;2024-01-10T06:59:58;-3.40;84.20
21169;DHT22;10742;51.816;8.662;2024-01-10T07:03:19;-3.40;84.40
21169;DHT22;10742;51.816;8.662;2024-01-10T07:06:40;-3.40;84.30
21169;DHT22;10742;51.816;8.662;2024-01-10T07:10:02;-3.40;84.20
21169;DHT22;10742;51.816;8.662;2024-01-10T07:13:26;-3.40;84.20
21169;DHT22;10742;51.816;8.662;2024-01-10T07:16:48;-3.40;84.20
21169;DHT22;10742;51.816;8.662;2024-01-10T07:20:09;-3.40;84.00
21169;DHT22;10742;51.816;8.662;2024-01-10T07:23:33;-3.40;84.10
21169;DHT22;10742;51.816;8.662;2024-01-10T07:26:55;-3.40;84.20
21169;DHT22;10742;51.816;8.662;2024-01-10T07:30:17;-3.40;84.30
21169;DHT22;10742;51.816;8.662;2024-01-10T07:33:39;-3.30;84.50
21169;DHT22;10742;51.816;8.662;2024-01-10T07:37:00;-3.30;84.50
21169;DHT22;10742;51.816;8.662;2024-01-10T07:40:22;-3.30;84.50
21169;DHT22;10742;51.816;8.662;2024-01-10T07:43:43;-3.20;84.40
21169;DHT22;10742;51.816;8.662;2024-01-10T07:47:05;-3.20;84.40
21169;DHT22;10742;51.816;8.662;2024-01-10T07:50:26;-3.20;84.40
21169;DHT22;10742;51.816;8.662;2024-01-10T07:53:49;-3.10;84.40
21169;DHT22;10742;51.816;8.662;2024-01-10T07:57:10;-3.10;84.30
21169;DHT22;10742;51.816;8.662;2024-01-10T08:00:32;-3.10;84.20
21169;DHT22;10742;51.816;8.662;2024-01-10T08:03:53;-3.10;84.10
21169;DHT22;10742;51.816;8.662;2024-01-10T08:07:14;-3.10;84.20
21169;DHT22;10742;51.816;8.662;2024-01-10T08:10:35;-3.00;84.30
21169;DHT22;10742;51.816;8.662;2024-01-10T08:13:57;-3.00;84.40
21169;DHT22;10742;51.816;8.662;2024-01-10T08:17:18;-2.90;84.50
21169;DHT22;10742;51.816;8.662;2024-01-10T08:20:40;-2.90;84.70
21169;DHT22;10742;51.816;8.662;2024-01-10T08:24:02;-2.90;84.80
21169;DHT22;10742;51.816;8.662;2024-01-10T08:27:24;-2.80;84.80
21169;DHT22;10742;51.816;8.662;2024-01-10T08:30:45;-2.80;84.80
21169;DHT22;10742;51.816;8.662;2024-01-10T08:34:06;-2.70;85.00
21169;DHT22;10742;51.816;8.662;2024-01-10T08:37:28;-2.70;85.50
21169;DHT22;10742;51.816;8.662;2024-01-10T08:40:49;-2.50;87.20
21169;DHT22;10742;51.816;8.662;2024-01-10T08:44:11;-2.30;88.50
21169;DHT22;10742;51.816;8.662;2024-01-10T08:47:32;-2.00;89.10
21169;DHT22;10742;51.816;8.662;2024-01-10T08:50:55;-1.70;89.60
21169;DHT22;10742;51.816;8.662;2024-01-10T08:54:17;-1.40;89.90
21169;DHT22;10742;51.816;8.662;2024-01-10T08:57:41;-1.10;90.00
21169;DHT22;10742;51.816;8.662;2024-01-10T09:01:03;-0.80;89.50
21169;DHT22;10742;51.816;8.662;2024-01-10T09:04:25;-0.50;88.40
21169;DHT22;10742;51.816;8.662;2024-01-10T09:07:47;-0.30;87.30
21169;DHT22;10742;51.816;8.662;2024-01-10T09:11:08;-0.20;86.30
21169;DHT22;10742;51.816;8.662;2024-01-10T09:14:30;-0.10;85.70
21169;DHT22;10742;51.816;8.662;2024-01-10T09:17:51;-0.10;85.30
21169;DHT22;10742;51.816;8.662;2024-01-10T09:21:13;-0.10;84.90
21169;DHT22;10742;51.816;8.662;2024-01-10T09:24:34;-0.20;84.70
21169;DHT22;10742;51.816;8.662;2024-01-10T09:27:56;-0.10;84.80
21169;DHT22;10742;51.816;8.662;2024-01-10T09:31:17;-0.10;84.80
21169;DHT22;10742;51.816;8.662;2024-01-10T09:34:38;-0.10;84.80
21169;DHT22;10742;51.816;8.662;2024-01-10T09:37:59;0.00;85.00
21169;DHT22;10742;51.816;8.662;2024-01-10T09:41:21;0.10;85.30
21169;DHT22;10742;51.816;8.662;2024-01-10T09:44:44;0.20;85.20
21169;DHT22;10742;51.816;8.662;2024-01-10T09:48:05;0.30;85.40
21169;DHT22;10742;51.816;8.662;2024-01-10T09:51:28;0.40;85.60
21169;DHT22;10742;51.816;8.662;2024-01-10T09:54:55;0.60;85.70
21169;DHT22;10742;51.816;8.662;2024-01-10T09:58:19;0.70;85.40
21169;DHT22;10742;51.816;8.662;2024-01-10T10:01:41;0.90;85.50
21169;DHT22;10742;51.816;8.662;2024-01-10T10:05:07;1.10;85.20
21169;DHT22;10742;51.816;8.662;2024-01-10T10:08:29;1.30;84.60
21169;DHT22;10742;51.816;8.662;2024-01-10T10:11:56;1.50;85.30
21169;DHT22;10742;51.816;8.662;2024-01-10T10:15:24;1.70;83.70
21169;DHT22;10742;51.816;8.662;2024-01-10T10:18:49;1.90;83.50
21169;DHT22;10742;51.816;8.662;2024-01-10T10:22:11;2.10;83.60
21169;DHT22;10742;51.816;8.662;2024-01-10T10:25:34;2.20;83.30
21169;DHT22;10742;51.816;8.662;2024-01-10T10:28:56;2.40;82.50
21169;DHT22;10742;51.816;8.662;2024-01-10T10:32:18;2.50;82.30
21169;DHT22;10742;51.816;8.662;2024-01-10T10:35:40;2.70;82.10
21169;DHT22;10742;51.816;8.662;2024-01-10T10:39:02;2.80;81.30
21169;DHT22;10742;51.816;8.662;2024-01-10T10:42:25;3.00;81.00
21169;DHT22;10742;51.816;8.662;2024-01-10T10:45:49;3.10;80.30
21169;DHT22;10742;51.816;8.662;2024-01-10T10:49:11;3.20;80.00
21169;DHT22;10742;51.816;8.662;2024-01-10T10:52:35;3.40;79.50
21169;DHT22;10742;51.816;8.662;2024-01-10T10:55:57;3.60;78.90
21169;DHT22;10742;51.816;8.662;2024-01-10T10:59:20;3.70;78.70
21169;DHT22;10742;51.816;8.662;2024-01-10T11:02:42;3.90;78.40
21169;DHT22;10742;51.816;8.662;2024-01-10T11:06:07;3.90;77.80
21169;DHT22;10742;51.816;8.662;2024-01-10T11:09:28;4.10;77.50
21169;DHT22;10742;51.816;8.662;2024-01-10T11:23:58;4.70;73.90
21169;DHT22;10742;51.816;8.662;2024-01-10T11:27:20;4.80;74.40
21169;DHT22;10742;51.816;8.662;2024-01-10T11:30:52;4.90;75.10
21169;DHT22;10742;51.816;8.662;2024-01-10T11:34:14;5.00;73.60
21169;DHT22;10742;51.816;8.662;2024-01-10T11:37:41;5.10;74.60
21169;DHT22;10742;51.816;8.662;2024-01-10T11:41:03;5.30;72.70
21169;DHT22;10742;51.816;8.662;2024-01-10T11:44:25;5.30;72.70
21169;DHT22;10742;51.816;8.662;2024-01-10T11:47:49;5.40;72.30
21169;DHT22;10742;51.816;8.662;2024-01-10T11:51:13;5.40;71.00
21169;DHT22;10742;51.816;8.662;2024-01-10T11:58:09;5.50;70.80
21169;DHT22;10742;51.816;8.662;2024-01-10T12:01:31;5.50;69.30
21169;DHT22;10742;51.816;8.662;2024-01-10T12:04:54;5.60;70.40
21169;DHT22;10742;51.816;8.662;2024-01-10T12:08:16;5.60;70.00
21169;DHT22;10742;51.816;8.662;2024-01-10T12:11:40;5.60;69.70
21169;DHT22;10742;51.816;8.662;2024-01-10T12:15:03;5.60;69.50
21169;DHT22;10742;51.816;8.662;2024-01-10T12:18:25;5.70;70.00
21169;DHT22;10742;51.816;8.662;2024-01-10T12:21:48;5.70;68.90
21169;DHT22;10742;51.816;8.662;2024-01-10T12:25:10;5.70;68.10
21169;DHT22;10742;51.816;8.662;2024-01-10T12:28:31;5.70;68.10
21169;DHT22;10742;51.816;8.662;2024-01-10T12:31:53;5.70;68.10
21169;DHT22;10742;51.816;8.662;2024-01-10T12:35:14;5.70;68.30
21169;DHT22;10742;51.816;8.662;2024-01-10T12:38:39;5.70;67.80
21169;DHT22;10742;51.816;8.662;2024-01-10T12:42:01;5.70;68.00
21169;DHT22;10742;51.816;8.662;2024-01-10T12:45:23;5.70;66.40
21169;DHT22;10742;51.816;8.662;2024-01-10T12:48:44;5.70;67.10
21169;DHT22;10742;51.816;8.662;2024-01-10T12:52:06;5.70;67.10
21169;DHT22;10742;51.816;8.662;2024-01-10T12:55:29;5.70;67.40
21169;DHT22;10742;51.816;8.662;2024-01-10T12:58:51;5.70;67.60
21169;DHT22;10742;51.816;8.662;2024-01-10T13:02:12;5.70;67.40
21169;DHT22;10742;51.816;8.662;2024-01-10T13:05:33;5.70;67.40
21169;DHT22;10742;51.816;8.662;2024-01-10T13:08:55;5.70;67.10
21169;DHT22;10742;51.816;8.662;2024-01-10T13:12:16;5.60;67.20
21169;DHT22;10742;51.816;8.662;2024-01-10T13:15:38;5.70;67.50
21169;DHT22;10742;51.816;8.662;2024-01-10T13:18:59;5.70;66.90
21169;DHT22;10742;51.816;8.662;2024-01-10T13:22:21;5.70;66.40
21169;DHT22;10742;51.816;8.662;2024-01-10T13:25:42;5.60;66.50
21169;DHT22;10742;51.816;8.662;2024-01-10T13:29:04;5.60;66.60
21169;DHT22;10742;51.816;8.662;2024-01-10T13:32:25;5.60;66.30
21169;DHT22;10742;51.816;8.662;2024-01-10T13:35:47;5.60;66.60
21169;DHT22;10742;51.816;8.662;2024-01-10T13:39:08;5.60;66.50
21169;DHT22;10742;51.816;8.662;2024-01-10T13:42:29;5.60;66.20
21169;DHT22;10742;51.816;8.662;2024-01-10T13:45:51;5.60;66.30
21169;DHT22;10742;51.816;8.662;2024-01-10T13:49:13;5.60;66.60
21169;DHT22;10742;51.816;8.662;2024-01-10T13:52:36;5.60;66.60
21169;DHT22;10742;51.816;8.662;2024-01-10T13:55:57;5.60;65.40
21169;DHT22;10742;51.816;8.662;2024-01-10T13:59:19;5.60;66.60
21169;DHT22;10742;51.816;8.662;2024-01-10T14:02:44;5.60;66.80
21169;DHT22;10742;51.816;8.662;2024-01-10T14:06:05;5.60;66.30
21169;DHT22;10742;51.816;8.662;2024-01-10T14:09:28;5.60;66.80
21169;DHT22;10742;51.816;8.662;2024-01-10T14:12:50;5.60;66.90
21169;DHT22;10742;51.816;8.662;2024-01-10T14:16:11;5.60;66.90
21169;DHT22;10742;51.816;8.662;2024-01-10T14:19:32;5.50;67.00
21169;DHT22;10742;51.816;8.662;2024-01-10T14:22:53;5.50;66.90
21169;DHT22;10742;51.816;8.662;2024-01-10T14:26:15;5.50;66.90
21169;DHT22;10742;51.816;8.662;2024-01-10T14:29:36;5.50;66.70
21169;DHT22;10742;51.816;8.662;2024-01-10T14:32:57;5.40;66.50
21169;DHT22;10742;51.816;8.662;2024-01-10T14:36:20;5.40;66.70
21169;DHT22;10742;51.816;8.662;2024-01-10T14:39:42;5.40;66.90
21169;DHT22;10742;51.816;8.662;2024-01-10T14:43:03;5.30;67.10
21169;DHT22;10742;51.816;8.662;2024-01-10T14:46:25;5.30;67.20
21169;DHT22;10742;51.816;8.662;2024-01-10T14:49:46;5.30;67.40
21169;DHT22;10742;51.816;8.662;2024-01-10T14:53:07;5.20;67.30
21169;DHT22;10742;51.816;8.662;2024-01-10T14:56:29;5.20;67.50
21169;DHT22;10742;51.816;8.662;2024-01-10T14:59:50;5.20;67.50
21169;DHT22;10742;51.816;8.662;2024-01-10T15:03:12;5.20;67.50
21169;DHT22;10742;51.816;8.662;2024-01-10T15:06:36;5.20;67.60
21169;DHT22;10742;51.816;8.662;2024-01-10T15:09:57;5.20;67.70
21169;DHT22;10742;51.816;8.662;2024-01-10T15:13:20;5.10;68.50
21169;DHT22;10742;51.816;8.662;2024-01-10T15:16:41;5.10;67.80
21169;DHT22;10742;51.816;8.662;2024-01-10T15:20:03;5.10;68.00
21169;DHT22;10742;51.816;8.662;2024-01-10T15:23:25;5.00;68.10
21169;DHT22;10742;51.816;8.662;2024-01-10T15:26:46;5.00;68.30
21169;DHT22;10742;51.816;8.662;2024-01-10T15:30:08;5.00;68.10
21169;DHT22;10742;51.816;8.662;2024-01-10T15:33:31;4.90;68.10
21169;DHT22;10742;51.816;8.662;2024-01-10T15:36:55;4.80;68.10
21169;DHT22;10742;51.816;8.662;2024-01-10T15:40:16;4.70;68.10
21169;DHT22;10742;51.816;8.662;2024-01-10T15:43:38;4.60;68.30
21169;DHT22;10742;51.816;8.662;2024-01-10T15:46:59;4.50;68.40
21169;DHT22;10742;51.816;8.662;2024-01-10T15:50:20;4.40;68.50
21169;DHT22;10742;51.816;8.662;2024-01-10T15:53:42;4.30;68.70
21169;DHT22;10742;51.816;8.662;2024-01-10T15:57:06;4.30;69.00
21169;DHT22;10742;51.816;8.662;2024-01-10T16:00:27;4.10;69.00
21169;DHT22;10742;51.816;8.662;2024-01-10T16:03:49;4.10;69.10
21169;DHT22;10742;51.816;8.662;2024-01-10T16:07:11;4.00;69.10
21169;DHT22;10742;51.816;8.662;2024-01-10T16:10:32;4.00;69.30
21169;DHT22;10742;51.816;8.662;2024-01-10T16:13:53;3.90;69.40
21169;DHT22;10742;51.816;8.662;2024-01-10T16:17:15;3.90;69.60
21169;DHT22;10742;51.816;8.662;2024-01-10T16:20:36;3.80;69.70
21169;DHT22;10742;51.816;8.662;2024-01-10T16:23:59;3.80;69.80
21169;DHT22;10742;51.816;8.662;2024-01-10T16:27:20;3.70;69.90
21169;DHT22;10742;51.816;8.662;2024-01-10T16:30:42;3.60;70.20
21169;DHT22;10742;51.816;8.662;2024-01-10T16:34:03;3.60;70.60
21169;DHT22;10742;51.816;8.662;2024-01-10T16:37:25;3.60;70.60
21169;DHT22;10742;51.816;8.662;2024-01-10T16:40:46;3.60;70.60
21169;DHT22;10742;51.816;8.662;2024-01-10T16:44:07;3.60;70.70
21169;DHT22;10742;51.816;8.662;2024-01-10T16:47:29;3.50;70.70
21169;DHT22;10742;51.816;8.662;2024-01-10T16:50:51;3.50;70.80
21169;DHT22;10742;51.816;8.662;2024-01-10T16:54:13;3.50;71.00
21169;DHT22;10742;51.816;8.662;2024-01-10T16:57:34;3.40;71.00
21169;DHT22;10742;51.816;8.662;2024-01-10T17:00:55;3.40;71.00
21169;DHT22;10742;51.816;8.662;2024-01-10T17:04:18;3.30;71.10
21169;DHT22;10742;51.816;8.662;2024-01-10T17:07:39;3.30;71.20
21169;DHT22;10742;51.816;8.662;2024-01-10T17:11:04;3.20;71.30
21169;DHT22;10742;51.816;8.662;2024-01-10T17:14:26;3.20;71.50
21169;DHT22;10742;51.816;8.662;2024-01-10T17:17:47;3.10;71.70
21169;DHT22;10742;51.816;8.662;2024-01-10T17:21:08;3.10;71.70
21169;DHT22;10742;51.816;8.662;2024-01-10T17:24:30;3.00;71.70
21169;DHT22;10742;51.816;8.662;2024-01-10T17:27:52;3.00;71.90
21169;DHT22;10742;51.816;8.662;2024-01-10T17:31:13;2.90;72.10
21169;DHT22;10742;51.816;8.662;2024-01-10T17:34:35;2.80;72.20
21169;DHT22;10742;51.816;8.662;2024-01-10T17:37:56;2.80;72.40
21169;DHT22;10742;51.816;8.662;2024-01-10T17:41:18;2.70;72.40
21169;DHT22;10742;51.816;8.662;2024-01-10T17:44:39;2.70;72.60
21169;DHT22;10742;51.816;8.662;2024-01-10T17:48:00;2.70;72.70
21169;DHT22;10742;51.816;8.662;2024-01-10T17:51:22;2.70;72.70
21169;DHT22;10742;51.816;8.662;2024-01-10T17:54:45;2.60;72.70
21169;DHT22;10742;51.816;8.662;2024-01-10T17:58:07;2.60;72.70
21169;DHT22;10742;51.816;8.662;2024-01-10T18:01:29;2.50;72.80
21169;DHT22;10742;51.816;8.662;2024-01-10T18:04:52;2.50;72.90
21169;DHT22;10742;51.816;8.662;2024-01-10T18:08:14;2.40;73.00
21169;DHT22;10742;51.816;8.662;2024-01-10T18:11:35;2.30;73.10
21169;DHT22;10742;51.816;8.662;2024-01-10T18:14:56;2.30;73.20
21169;DHT22;10742;51.816;8.662;2024-01-10T18:18:17;2.30;73.50
21169;DHT22;10742;51.816;8.662;2024-01-10T18:21:39;2.20;73.60
21169;DHT22;10742;51.816;8.662;2024-01-10T18:25:00;2.10;73.70
21169;DHT22;10742;51.816;8.662;2024-01-10T18:28:21;2.20;73.90
21169;DHT22;10742;51.816;8.662;2024-01-10T18:31:43;2.10;73.90
21169;DHT22;10742;51.816;8.662;2024-01-10T18:35:04;2.10;74.60
21169;DHT22;10742;51.816;8.662;2024-01-10T18:38:26;2.00;74.70
21169;DHT22;10742;51.816;8.662;2024-01-10T18:41:47;2.10;75.40
21169;DHT22;10742;51.816;8.662;2024-01-10T18:45:09;2.00;74.50
21169;DHT22;10742;51.816;8.662;2024-01-10T18:48:30;2.00;74.60
21169;DHT22;10742;51.816;8.662;2024-01-10T18:51:52;2.00;74.70
21169;DHT22;10742;51.816;8.662;2024-01-10T18:55:13;1.90;74.70
21169;DHT22;10742;51.816;8.662;2024-01-10T18:58:34;1.90;74.80
21169;DHT22;10742;51.816;8.662;2024-01-10T19:01:56;1.90;75.00
21169;DHT22;10742;51.816;8.662;2024-01-10T19:05:18;1.90;75.00
21169;DHT22;10742;51.816;8.662;2024-01-10T19:08:42;1.90;75.10
21169;DHT22;10742;51.816;8.662;2024-01-10T19:12:04;1.90;75.00
21169;DHT22;10742;51.816;8.662;2024-01-10T19:15:25;1.90;75.00
21169;DHT22;10742;51.816;8.662;2024-01-10T19:18:46;1.90;75.00
21169;DHT22;10742;51.816;8.662;2024-01-10T19:22:08;1.90;75.00
21169;DHT22;10742;51.816;8.662;2024-01-10T19:25:29;1.90;75.00
21169;DHT22;10742;51.816;8.662;2024-01-10T19:28:51;1.90;75.00
21169;DHT22;10742;51.816;8.662;2024-01-10T19:32:13;1.80;74.90
21169;DHT22;10742;51.816;8.662;2024-01-10T19:35:34;1.80;75.10
21169;DHT22;10742;51.816;8.662;2024-01-10T19:38:56;1.70;75.30
21169;DHT22;10742;51.816;8.662;2024-01-10T19:42:17;1.70;75.40
21169;DHT22;10742;51.816;8.662;2024-01-10T19:45:39;1.60;75.40
21169;DHT22;10742;51.816;8.662;2024-01-10T19:49:01;1.60;75.50
21169;DHT22;10742;51.816;8.662;2024-01-10T19:52:23;1.60;75.60
21169;DHT22;10742;51.816;8.662;2024-01-10T19:55:44;1.60;75.70
21169;DHT22;10742;51.816;8.662;2024-01-10T19:59:05;1.60;75.70
21169;DHT22;10742;51.816;8.662;2024-01-10T20:02:27;1.60;75.70
21169;DHT22;10742;51.816;8.662;2024-01-10T20:05:48;1.60;75.80
21169;DHT22;10742;51.816;8.662;2024-01-10T20:09:10;1.60;75.90
21169;DHT22;10742;51.816;8.662;2024-01-10T20:12:33;1.50;75.80
21169;DHT22;10742;51.816;8.662;2024-01-10T20:15:54;1.50;75.90
21169;DHT22;10742;51.816;8.662;2024-01-10T20:19:16;1.50;75.90
21169;DHT22;10742;51.816;8.662;2024-01-10T20:22:37;1.40;76.70
21169;DHT22;10742;51.816;8.662;2024-01-10T20:25:59;1.40;75.80
21169;DHT22;10742;51.816;8.662;2024-01-10T20:29:20;1.40;76.00
21169;DHT22;10742;51.816;8.662;2024-01-10T20:32:41;1.30;76.10
21169;DHT22;10742;51.816;8.662;2024-01-10T20:36:03;1.30;76.20
21169;DHT22;10742;51.816;8.662;2024-01-10T20:39:24;1.20;77.10
21169;DHT22;10742;51.816;8.662;2024-01-10T20:42:46;1.10;76.30
21169;DHT22;10742;51.816;8.662;2024-01-10T20:46:07;1.10;76.50
21169;DHT22;10742;51.816;8.662;2024-01-10T20:49:28;1.10;76.50
21169;DHT22;10742;51.816;8.662;2024-01-10T20:52:50;1.00;76.60
21169;DHT22;10742;51.816;8.662;2024-01-10T20:56:11;1.00;76.70
21169;DHT22;10742;51.816;8.662;2024-01-10T20:59:32;0.90;76.80
21169;DHT22;10742;51.816;8.662;2024-01-10T21:02:53;0.90;76.80
21169;DHT22;10742;51.816;8.662;2024-01-10T21:06:14;0.90;76.90
21169;DHT22;10742;51.816;8.662;2024-01-10T21:09:38;0.70;77.80
21169;DHT22;10742;51.816;8.662;2024-01-10T21:12:59;0.70;78.20
21169;DHT22;10742;51.816;8.662;2024-01-10T21:16:21;0.70;77.90
21169;DHT22;10742;51.816;8.662;2024-01-10T21:19:42;0.70;78.40
21169;DHT22;10742;51.816;8.662;2024-01-10T21:23:04;0.70;77.50
21169;DHT22;10742;51.816;8.662;2024-01-10T21:26:25;0.70;77.60
21169;DHT22;10742;51.816;8.662;2024-01-10T21:29:47;0.60;77.50
21169;DHT22;10742;51.816;8.662;2024-01-10T21:33:08;0.60;77.60
21169;DHT22;10742;51.816;8.662;2024-01-10T21:36:30;0.50;77.60
21169;DHT22;10742;51.816;8.662;2024-01-10T21:39:52;0.50;77.70
21169;DHT22;10742;51.816;8.662;2024-01-10T21:43:13;0.40;77.70